sensor_id;sensor_type;location;lat;lon;timestamp;pressure;altitude;pressure_sealevel;temperature;humidity
74905;BME280;63465;50.862;6.220;2023-03-14T00:02:21;97476.19;;;11.67;74.00
74905;BME280;63465;50.862;6.220;2023-03-14T00:04:48;97488.75;;;11.65;74.44
74905;BME280;63465;50.862;6.220;2023-03-14T00:07:15;97498.09;;;11.59;76.04
74905;BME280;63465;50.862;6.220;2023-03-14T00:09:42;97517.25;;;11.53;76.20
74905;BME280;63465;50.862;6.220;2023-03-14T00:12:09;97534.28;;;11.60;75.74
74905;BME280;63465;50.862;6.220;2023-03-14T00:14:35;97533.47;;;11.60;75.74
74905;BME280;63465;50.862;6.220;2023-03-14T00:17:03;97578.09;;;11.66;76.03
74905;BME280;63465;50.862;6.220;2023-03-14T00:19:30;97605.13;;;10.98;81.75
74905;BME280;63465;50.862;6.220;2023-03-14T00:21:57;97615.97;;;10.30;80.16
74905;BME280;63465;50.862;6.220;2023-03-14T00:24:24;97609.91;;;9.85;83.04
74905;BME280;63465;50.862;6.220;2023-03-14T00:26:50;97606.47;;;9.50;87.46
74905;BME280;63465;50.862;6.220;2023-03-14T00:29:17;97607.97;;;9.19;89.37
74905;BME280;63465;50.862;6.220;2023-03-14T00:31:44;97608.84;;;9.19;89.68
74905;BME280;63465;50.862;6.220;2023-03-14T00:34:12;97605.25;;;9.32;89.67
74905;BME280;63465;50.862;6.220;2023-03-14T00:36:39;97603.19;;;9.35;89.79
74905;BME280;63465;50.862;6.220;2023-03-14T00:39:06;97590.22;;;9.43;89.42
74905;BME280;63465;50.862;6.220;2023-03-14T00:41:32;97583.59;;;9.49;89.26
74905;BME280;63465;50.862;6.220;2023-03-14T00:43:59;97578.16;;;9.51;89.03
74905;BME280;63465;50.862;6.220;2023-03-14T00:46:26;97601.16;;;9.50;89.63
74905;BME280;63465;50.862;6.220;2023-03-14T00:48:53;97563.13;;;9.62;88.03
74905;BME280;63465;50.862;6.220;2023-03-14T00:51:21;97571.53;;;9.68;87.46
74905;BME280;63465;50.862;6.220;2023-03-14T00:53:48;97578.38;;;9.81;86.69
74905;BME280;63465;50.862;6.220;2023-03-14T00:56:14;97577.56;;;9.81;86.03
74905;BME280;63465;50.862;6.220;2023-03-14T00:58:41;97576.59;;;9.82;85.82
74905;BME280;63465;50.862;6.220;2023-03-14T01:01:12;97568.53;;;9.72;86.73
74905;BME280;63465;50.862;6.220;2023-03-14T01:03:39;97573.81;;;9.72;86.37
74905;BME280;63465;50.862;6.220;2023-03-14T01:06:08;97572.63;;;9.76;86.58
74905;BME280;63465;50.862;6.220;2023-03-14T01:08:36;97573.34;;;9.78;86.55
74905;BME280;63465;50.862;6.220;2023-03-14T01:11:06;97563.84;;;9.76;86.30
74905;BME280;63465;50.862;6.220;2023-03-14T01:13:32;97550.84;;;9.73;86.27
74905;BME280;63465;50.862;6.220;2023-03-14T01:16:03;97553.00;;;9.68;86.61
74905;BME280;63465;50.862;6.220;2023-03-14T01:18:30;97544.56;;;9.74;86.63
74905;BME280;63465;50.862;6.220;2023-03-14T01:20:57;97540.63;;;9.68;87.00
74905;BME280;63465;50.862;6.220;2023-03-14T01:23:24;97535.56;;;9.65;87.60
74905;BME280;63465;50.862;6.220;2023-03-14T01:25:52;97520.19;;;9.59;87.84
74905;BME280;63465;50.862;6.220;2023-03-14T01:28:19;97522.72;;;9.60;87.72
74905;BME280;63465;50.862;6.220;2023-03-14T01:30:46;97521.00;;;9.59;88.27
74905;BME280;63465;50.862;6.220;2023-03-14T01:33:12;97518.94;;;9.63;87.74
74905;BME280;63465;50.862;6.220;2023-03-14T01:35:42;97515.22;;;9.66;87.36
74905;BME280;63465;50.862;6.220;2023-03-14T01:38:09;97508.50;;;9.61;87.53
74905;BME280;63465;50.862;6.220;2023-03-14T01:40:41;97512.13;;;9.60;87.56
74905;BME280;63465;50.862;6.220;2023-03-14T01:43:16;97509.47;;;9.60;87.31
74905;BME280;63465;50.862;6.220;2023-03-14T01:48:54;97507.16;;;9.67;87.75
74905;BME280;63465;50.862;6.220;2023-03-14T01:51:26;97506.44;;;9.65;87.68
74905;BME280;63465;50.862;6.220;2023-03-14T01:53:55;97497.66;;;9.64;87.75
74905;BME280;63465;50.862;6.220;2023-03-14T01:56:25;97496.94;;;9.62;87.78
74905;BME280;63465;50.862;6.220;2023-03-14T01:58:53;97491.53;;;9.64;88.01
74905;BME280;63465;50.862;6.220;2023-03-14T02:01:24;97504.63;;;9.66;88.02
74905;BME280;63465;50.862;6.220;2023-03-14T02:03:53;97495.50;;;9.58;88.71
74905;BME280;63465;50.862;6.220;2023-03-14T02:06:24;97495.38;;;9.60;88.93
74905;BME280;63465;50.862;6.220;2023-03-14T02:08:55;97495.63;;;9.57;88.91
74905;BME280;63465;50.862;6.220;2023-03-14T02:11:27;97499.47;;;9.64;89.08
74905;BME280;63465;50.862;6.220;2023-03-14T02:14:07;97499.59;;;9.62;88.58
74905;BME280;63465;50.862;6.220;2023-03-14T02:17:07;97494.03;;;9.66;88.28
74905;BME280;63465;50.862;6.220;2023-03-14T02:20:13;97495.63;;;9.68;87.86
74905;BME280;63465;50.862;6.220;2023-03-14T02:22:52;97493.06;;;9.78;87.37
74905;BME280;63465;50.862;6.220;2023-03-14T02:25:24;97479.56;;;9.81;87.21
74905;BME280;63465;50.862;6.220;2023-03-14T02:27:54;97481.00;;;9.85;86.45
74905;BME280;63465;50.862;6.220;2023-03-14T02:30:23;97469.84;;;10.03;85.45
74905;BME280;63465;50.862;6.220;2023-03-14T02:32:53;97466.25;;;10.04;85.14
74905;BME280;63465;50.862;6.220;2023-03-14T02:35:22;97468.88;;;10.04;85.65
74905;BME280;63465;50.862;6.220;2023-03-14T02:37:53;97466.50;;;10.00;86.61
74905;BME280;63465;50.862;6.220;2023-03-14T02:40:23;97451.69;;;9.98;86.37
74905;BME280;63465;50.862;6.220;2023-03-14T02:42:52;97451.31;;;10.03;85.48
74905;BME280;63465;50.862;6.220;2023-03-14T02:45:47;97440.44;;;10.06;85.82
74905;BME280;63465;50.862;6.220;2023-03-14T02:48:19;97436.97;;;10.05;85.63
74905;BME280;63465;50.862;6.220;2023-03-14T02:50:48;97444.91;;;10.05;85.51
74905;BME280;63465;50.862;6.220;2023-03-14T02:53:18;97452.34;;;10.11;85.40
74905;BME280;63465;50.862;6.220;2023-03-14T02:55:46;97453.50;;;9.97;86.87
74905;BME280;63465;50.862;6.220;2023-03-14T02:58:16;97460.97;;;9.60;89.92
74905;BME280;63465;50.862;6.220;2023-03-14T03:00:44;97455.56;;;9.50;90.66
74905;BME280;63465;50.862;6.220;2023-03-14T03:03:13;97460.66;;;9.42;92.51
74905;BME280;63465;50.862;6.220;2023-03-14T03:05:40;97452.47;;;9.34;92.67
74905;BME280;63465;50.862;6.220;2023-03-14T03:08:08;97450.06;;;9.31;93.69
74905;BME280;63465;50.862;6.220;2023-03-14T03:10:36;97451.75;;;9.32;94.00
74905;BME280;63465;50.862;6.220;2023-03-14T03:13:03;97436.84;;;9.31;93.84
74905;BME280;63465;50.862;6.220;2023-03-14T03:15:30;97430.47;;;9.33;93.43
74905;BME280;63465;50.862;6.220;2023-03-14T03:17:57;97433.00;;;9.35;93.10
74905;BME280;63465;50.862;6.220;2023-03-14T03:20:25;97432.75;;;9.38;92.75
74905;BME280;63465;50.862;6.220;2023-03-14T03:22:52;97429.72;;;9.42;92.21
74905;BME280;63465;50.862;6.220;2023-03-14T03:25:19;97432.84;;;9.48;91.49
74905;BME280;63465;50.862;6.220;2023-03-14T03:27:45;97429.22;;;9.49;91.75
74905;BME280;63465;50.862;6.220;2023-03-14T03:30:16;97421.66;;;9.44;91.97
74905;BME280;63465;50.862;6.220;2023-03-14T03:32:43;97423.09;;;9.37;92.37
74905;BME280;63465;50.862;6.220;2023-03-14T03:35:11;97434.44;;;9.39;92.37
74905;BME280;63465;50.862;6.220;2023-03-14T03:37:40;97426.63;;;9.37;92.64
74905;BME280;63465;50.862;6.220;2023-03-14T03:40:08;97424.44;;;9.42;92.97
74905;BME280;63465;50.862;6.220;2023-03-14T03:42:36;97428.28;;;9.38;92.68
74905;BME280;63465;50.862;6.220;2023-03-14T03:45:07;97416.91;;;9.26;93.67
74905;BME280;63465;50.862;6.220;2023-03-14T03:47:37;97409.56;;;9.19;94.55
74905;BME280;63465;50.862;6.220;2023-03-14T03:50:05;97414.84;;;9.19;94.83
74905;BME280;63465;50.862;6.220;2023-03-14T03:52:32;97413.06;;;9.19;94.57
74905;BME280;63465;50.862;6.220;2023-03-14T03:55:00;97418.09;;;9.22;94.23
74905;BME280;63465;50.862;6.220;2023-03-14T03:57:28;97418.44;;;9.29;93.70
74905;BME280;63465;50.862;6.220;2023-03-14T03:59:55;97410.38;;;9.31;93.81
74905;BME280;63465;50.862;6.220;2023-03-14T04:02:22;97418.19;;;9.32;93.67
74905;BME280;63465;50.862;6.220;2023-03-14T04:04:50;97410.38;;;9.31;93.76
74905;BME280;63465;50.862;6.220;2023-03-14T04:07:17;97419.41;;;9.28;93.89
74905;BME280;63465;50.862;6.220;2023-03-14T04:09:44;97414.47;;;9.35;93.49
74905;BME280;63465;50.862;6.220;2023-03-14T04:12:23;97397.63;;;9.36;93.04
74905;BME280;63465;50.862;6.220;2023-03-14T04:15:09;97403.06;;;9.34;93.03
74905;BME280;63465;50.862;6.220;2023-03-14T04:17:40;97402.31;;;9.32;93.31
74905;BME280;63465;50.862;6.220;2023-03-14T04:20:08;97418.44;;;9.29;93.44
74905;BME280;63465;50.862;6.220;2023-03-14T04:22:37;97399.47;;;9.24;93.76
74905;BME280;63465;50.862;6.220;2023-03-14T04:25:04;97401.22;;;9.35;93.01
74905;BME280;63465;50.862;6.220;2023-03-14T04:27:36;97393.75;;;9.40;92.33
74905;BME280;63465;50.862;6.220;2023-03-14T04:30:10;97391.09;;;9.40;92.07
74905;BME280;63465;50.862;6.220;2023-03-14T04:32:58;97382.66;;;9.46;91.22
74905;BME280;63465;50.862;6.220;2023-03-14T04:35:26;97388.81;;;9.46;90.60
74905;BME280;63465;50.862;6.220;2023-03-14T04:37:57;97379.25;;;9.55;90.04
74905;BME280;63465;50.862;6.220;2023-03-14T04:40:24;97387.81;;;9.59;89.70
74905;BME280;63465;50.862;6.220;2023-03-14T04:42:57;97371.06;;;9.58;88.55
74905;BME280;63465;50.862;6.220;2023-03-14T04:45:23;97367.59;;;9.58;88.52
74905;BME280;63465;50.862;6.220;2023-03-14T04:47:51;97368.91;;;9.63;87.91
74905;BME280;63465;50.862;6.220;2023-03-14T04:50:19;97372.38;;;9.64;87.75
74905;BME280;63465;50.862;6.220;2023-03-14T04:52:46;97366.50;;;9.60;88.38
74905;BME280;63465;50.862;6.220;2023-03-14T04:55:14;97365.44;;;9.52;89.10
74905;BME280;63465;50.862;6.220;2023-03-14T04:57:41;97363.94;;;9.38;90.37
74905;BME280;63465;50.862;6.220;2023-03-14T05:00:11;97368.97;;;9.41;90.27
74905;BME280;63465;50.862;6.220;2023-03-14T05:02:46;97378.59;;;9.42;90.34
74905;BME280;63465;50.862;6.220;2023-03-14T05:05:23;97367.16;;;9.41;90.85
74905;BME280;63465;50.862;6.220;2023-03-14T05:08:12;97369.94;;;9.40;91.49
74905;BME280;63465;50.862;6.220;2023-03-14T05:11:00;97373.56;;;9.39;91.46
74905;BME280;63465;50.862;6.220;2023-03-14T05:13:55;97373.81;;;9.36;91.65
74905;BME280;63465;50.862;6.220;2023-03-14T05:16:39;97366.38;;;9.30;92.49
74905;BME280;63465;50.862;6.220;2023-03-14T05:19:16;97361.22;;;9.28;92.90
74905;BME280;63465;50.862;6.220;2023-03-14T05:21:43;97366.63;;;9.26;92.52
74905;BME280;63465;50.862;6.220;2023-03-14T05:24:24;97371.44;;;9.21;92.98
74905;BME280;63465;50.862;6.220;2023-03-14T05:27:15;97358.94;;;9.23;92.78
74905;BME280;63465;50.862;6.220;2023-03-14T05:30:09;97352.44;;;9.16;93.74
74905;BME280;63465;50.862;6.220;2023-03-14T05:32:46;97345.34;;;9.17;92.85
74905;BME280;63465;50.862;6.220;2023-03-14T05:35:36;97348.34;;;9.23;91.79
74905;BME280;63465;50.862;6.220;2023-03-14T05:38:15;97334.38;;;9.21;92.41
74905;BME280;63465;50.862;6.220;2023-03-14T05:40:58;97325.88;;;9.18;92.55
74905;BME280;63465;50.862;6.220;2023-03-14T05:43:51;97334.25;;;9.23;91.99
74905;BME280;63465;50.862;6.220;2023-03-14T05:46:44;97329.47;;;9.17;92.64
74905;BME280;63465;50.862;6.220;2023-03-14T05:49:32;97345.84;;;9.10;93.32
74905;BME280;63465;50.862;6.220;2023-03-14T05:52:17;97331.19;;;9.06;93.32
74905;BME280;63465;50.862;6.220;2023-03-14T05:54:56;97327.91;;;9.14;93.03
74905;BME280;63465;50.862;6.220;2023-03-14T05:57:42;97338.72;;;9.22;92.65
74905;BME280;63465;50.862;6.220;2023-03-14T06:00:32;97341.13;;;9.25;93.19
74905;BME280;63465;50.862;6.220;2023-03-14T06:03:15;97336.09;;;9.22;93.10
74905;BME280;63465;50.862;6.220;2023-03-14T06:05:46;97333.88;;;9.27;93.08
74905;BME280;63465;50.862;6.220;2023-03-14T06:08:12;97336.53;;;9.27;93.22
74905;BME280;63465;50.862;6.220;2023-03-14T06:10:39;97336.28;;;9.31;93.38
74905;BME280;63465;50.862;6.220;2023-03-14T06:13:06;97344.09;;;9.32;93.47
74905;BME280;63465;50.862;6.220;2023-03-14T06:15:34;97346.97;;;9.40;93.25
74905;BME280;63465;50.862;6.220;2023-03-14T06:18:01;97341.06;;;9.37;93.70
74905;BME280;63465;50.862;6.220;2023-03-14T06:20:28;97344.19;;;9.42;93.46
74905;BME280;63465;50.862;6.220;2023-03-14T06:22:57;97342.75;;;9.38;94.35
74905;BME280;63465;50.862;6.220;2023-03-14T06:25:23;97355.28;;;9.36;95.02
74905;BME280;63465;50.862;6.220;2023-03-14T06:27:50;97340.38;;;9.35;94.89
74905;BME280;63465;50.862;6.220;2023-03-14T06:30:17;97349.50;;;9.42;94.61
74905;BME280;63465;50.862;6.220;2023-03-14T06:32:44;97344.72;;;9.57;94.10
74905;BME280;63465;50.862;6.220;2023-03-14T06:35:13;97349.63;;;9.61;93.17
74905;BME280;63465;50.862;6.220;2023-03-14T06:37:42;97346.03;;;9.62;93.29
74905;BME280;63465;50.862;6.220;2023-03-14T06:40:12;97344.03;;;9.55;93.78
74905;BME280;63465;50.862;6.220;2023-03-14T06:43:08;97350.00;;;9.68;93.52
74905;BME280;63465;50.862;6.220;2023-03-14T06:45:36;97345.00;;;9.75;93.19
74905;BME280;63465;50.862;6.220;2023-03-14T06:48:03;97352.25;;;9.73;92.90
74905;BME280;63465;50.862;6.220;2023-03-14T06:50:38;97345.25;;;9.72;93.38
74905;BME280;63465;50.862;6.220;2023-03-14T06:53:04;97338.03;;;9.74;93.19
74905;BME280;63465;50.862;6.220;2023-03-14T06:55:34;97351.47;;;9.82;93.09
74905;BME280;63465;50.862;6.220;2023-03-14T06:58:01;97361.31;;;9.91;92.38
74905;BME280;63465;50.862;6.220;2023-03-14T07:00:29;97368.03;;;9.95;91.96
74905;BME280;63465;50.862;6.220;2023-03-14T07:02:56;97365.81;;;10.00;91.57
74905;BME280;63465;50.862;6.220;2023-03-14T07:05:33;97372.34;;;9.96;91.76
74905;BME280;63465;50.862;6.220;2023-03-14T07:08:00;97379.06;;;10.00;91.92
74905;BME280;63465;50.862;6.220;2023-03-14T07:10:27;97367.31;;;9.93;91.85
74905;BME280;63465;50.862;6.220;2023-03-14T07:12:55;97360.91;;;9.96;91.94
74905;BME280;63465;50.862;6.220;2023-03-14T07:15:25;97366.34;;;9.94;91.58
74905;BME280;63465;50.862;6.220;2023-03-14T07:17:56;97371.19;;;9.89;92.06
74905;BME280;63465;50.862;6.220;2023-03-14T07:20:24;97371.63;;;9.94;92.03
74905;BME280;63465;50.862;6.220;2023-03-14T07:22:51;97376.88;;;10.06;91.86
74905;BME280;63465;50.862;6.220;2023-03-14T07:25:28;97384.38;;;10.00;92.21
74905;BME280;63465;50.862;6.220;2023-03-14T07:27:56;97394.84;;;10.02;92.29
74905;BME280;63465;50.862;6.220;2023-03-14T07:30:22;97392.88;;;10.04;91.85
74905;BME280;63465;50.862;6.220;2023-03-14T07:32:50;97394.44;;;10.07;91.35
74905;BME280;63465;50.862;6.220;2023-03-14T07:35:17;97395.88;;;10.11;91.72
74905;BME280;63465;50.862;6.220;2023-03-14T07:37:44;97390.59;;;10.11;92.11
74905;BME280;63465;50.862;6.220;2023-03-14T07:40:12;97385.59;;;10.17;91.00
74905;BME280;63465;50.862;6.220;2023-03-14T07:42:40;97399.94;;;10.15;91.22
74905;BME280;63465;50.862;6.220;2023-03-14T07:45:15;97411.44;;;10.25;90.99
74905;BME280;63465;50.862;6.220;2023-03-14T07:47:42;97396.31;;;10.16;91.56
74905;BME280;63465;50.862;6.220;2023-03-14T07:50:10;97390.06;;;10.17;90.89
74905;BME280;63465;50.862;6.220;2023-03-14T07:52:37;97407.38;;;10.21;90.66
74905;BME280;63465;50.862;6.220;2023-03-14T07:55:04;97407.72;;;10.28;90.96
74905;BME280;63465;50.862;6.220;2023-03-14T07:57:31;97415.03;;;10.35;90.77
74905;BME280;63465;50.862;6.220;2023-03-14T07:59:58;97420.53;;;10.44;90.90
74905;BME280;63465;50.862;6.220;2023-03-14T08:02:26;97427.38;;;10.46;89.39
74905;BME280;63465;50.862;6.220;2023-03-14T08:04:53;97408.88;;;10.56;89.23
74905;BME280;63465;50.862;6.220;2023-03-14T08:07:19;97416.56;;;10.59;89.09
74905;BME280;63465;50.862;6.220;2023-03-14T08:09:46;97417.03;;;10.64;88.91
74905;BME280;63465;50.862;6.220;2023-03-14T08:12:13;97429.50;;;10.52;90.31
74905;BME280;63465;50.862;6.220;2023-03-14T08:14:39;97437.63;;;10.18;92.71
74905;BME280;63465;50.862;6.220;2023-03-14T08:17:06;97435.56;;;10.22;93.83
74905;BME280;63465;50.862;6.220;2023-03-14T08:19:35;97439.91;;;10.23;94.40
74905;BME280;63465;50.862;6.220;2023-03-14T08:22:02;97451.00;;;10.17;94.32
74905;BME280;63465;50.862;6.220;2023-03-14T08:24:29;97455.81;;;10.23;95.12
74905;BME280;63465;50.862;6.220;2023-03-14T08:26:56;97452.63;;;10.29;94.72
74905;BME280;63465;50.862;6.220;2023-03-14T08:29:22;97475.88;;;10.05;94.46
74905;BME280;63465;50.862;6.220;2023-03-14T08:31:49;97456.50;;;10.25;94.53
74905;BME280;63465;50.862;6.220;2023-03-14T08:34:16;97465.22;;;10.16;94.67
74905;BME280;63465;50.862;6.220;2023-03-14T08:36:44;97477.31;;;10.30;94.97
74905;BME280;63465;50.862;6.220;2023-03-14T08:39:11;97475.06;;;10.25;94.19
74905;BME280;63465;50.862;6.220;2023-03-14T08:41:38;97480.47;;;10.24;95.09
74905;BME280;63465;50.862;6.220;2023-03-14T08:44:08;97479.41;;;10.26;94.62
74905;BME280;63465;50.862;6.220;2023-03-14T08:46:35;97485.78;;;10.24;95.27
74905;BME280;63465;50.862;6.220;2023-03-14T08:49:02;97485.97;;;10.32;95.67
74905;BME280;63465;50.862;6.220;2023-03-14T08:51:29;97490.78;;;10.06;94.17
74905;BME280;63465;50.862;6.220;2023-03-14T08:53:57;97488.38;;;10.14;92.51
74905;BME280;63465;50.862;6.220;2023-03-14T08:56:24;97502.69;;;9.79;92.65
74905;BME280;63465;50.862;6.220;2023-03-14T08:58:50;97576.13;;;9.32;92.89
74905;BME280;63465;50.862;6.220;2023-03-14T09:01:17;97611.91;;;8.90;93.50
74905;BME280;63465;50.862;6.220;2023-03-14T09:03:44;97598.72;;;8.66;91.60
74905;BME280;63465;50.862;6.220;2023-03-14T09:06:13;97612.84;;;8.54;92.18
74905;BME280;63465;50.862;6.220;2023-03-14T09:08:43;97635.16;;;8.26;90.46
74905;BME280;63465;50.862;6.220;2023-03-14T09:11:12;97642.78;;;8.17;90.55
74905;BME280;63465;50.862;6.220;2023-03-14T09:13:39;97657.69;;;8.18;91.72
74905;BME280;63465;50.862;6.220;2023-03-14T09:16:07;97661.81;;;8.23;91.81
74905;BME280;63465;50.862;6.220;2023-03-14T09:18:34;97682.84;;;8.11;91.82
74905;BME280;63465;50.862;6.220;2023-03-14T09:21:01;97696.72;;;8.02;91.71
74905;BME280;63465;50.862;6.220;2023-03-14T09:23:27;97698.19;;;8.06;92.15
74905;BME280;63465;50.862;6.220;2023-03-14T09:25:54;97718.09;;;7.86;91.49
74905;BME280;63465;50.862;6.220;2023-03-14T09:28:23;97733.72;;;7.89;91.91
74905;BME280;63465;50.862;6.220;2023-03-14T09:30:50;97741.63;;;7.76;91.36
74905;BME280;63465;50.862;6.220;2023-03-14T09:33:17;97749.97;;;7.83;90.82
74905;BME280;63465;50.862;6.220;2023-03-14T09:35:44;97761.59;;;7.80;90.54
74905;BME280;63465;50.862;6.220;2023-03-14T09:38:11;97783.03;;;7.63;90.50
74905;BME280;63465;50.862;6.220;2023-03-14T09:40:38;97782.06;;;7.64;90.24
74905;BME280;63465;50.862;6.220;2023-03-14T09:43:05;97797.59;;;7.81;90.20
74905;BME280;63465;50.862;6.220;2023-03-14T09:45:35;97801.81;;;7.84;88.97
74905;BME280;63465;50.862;6.220;2023-03-14T09:48:04;97800.69;;;8.01;88.92
74905;BME280;63465;50.862;6.220;2023-03-14T09:50:37;97825.81;;;8.07;88.04
74905;BME280;63465;50.862;6.220;2023-03-14T09:53:08;97821.59;;;8.17;88.45
74905;BME280;63465;50.862;6.220;2023-03-14T09:55:36;97848.09;;;8.15;87.11
74905;BME280;63465;50.862;6.220;2023-03-14T09:58:09;97845.16;;;8.07;87.50
74905;BME280;63465;50.862;6.220;2023-03-14T10:00:38;97855.59;;;7.83;88.44
74905;BME280;63465;50.862;6.220;2023-03-14T10:03:21;97868.47;;;7.88;89.24
74905;BME280;63465;50.862;6.220;2023-03-14T10:05:48;97866.56;;;7.90;89.67
74905;BME280;63465;50.862;6.220;2023-03-14T10:08:15;97867.41;;;7.77;89.65
74905;BME280;63465;50.862;6.220;2023-03-14T10:10:41;97881.31;;;7.79;90.59
74905;BME280;63465;50.862;6.220;2023-03-14T10:13:14;97888.25;;;7.55;91.47
74905;BME280;63465;50.862;6.220;2023-03-14T10:15:52;97883.22;;;7.64;91.89
74905;BME280;63465;50.862;6.220;2023-03-14T10:18:19;97881.31;;;7.66;90.20
74905;BME280;63465;50.862;6.220;2023-03-14T10:20:48;97909.97;;;7.85;88.56
74905;BME280;63465;50.862;6.220;2023-03-14T10:23:27;97904.69;;;7.85;88.63
74905;BME280;63465;50.862;6.220;2023-03-14T10:26:03;97916.00;;;7.88;90.20
74905;BME280;63465;50.862;6.220;2023-03-14T10:28:33;97949.88;;;7.81;90.63
74905;BME280;63465;50.862;6.220;2023-03-14T10:31:01;97946.94;;;7.85;90.47
74905;BME280;63465;50.862;6.220;2023-03-14T10:33:29;97954.06;;;7.98;88.93
74905;BME280;63465;50.862;6.220;2023-03-14T10:35:58;97959.66;;;8.06;88.60
74905;BME280;63465;50.862;6.220;2023-03-14T10:38:27;97972.09;;;7.91;89.29
74905;BME280;63465;50.862;6.220;2023-03-14T10:40:55;97976.63;;;7.89;90.24
74905;BME280;63465;50.862;6.220;2023-03-14T10:43:25;97999.41;;;7.77;90.59
74905;BME280;63465;50.862;6.220;2023-03-14T10:45:55;98004.66;;;7.50;90.33
74905;BME280;63465;50.862;6.220;2023-03-14T10:48:30;98022.44;;;7.75;89.63
74905;BME280;63465;50.862;6.220;2023-03-14T10:51:03;98015.38;;;7.89;89.51
74905;BME280;63465;50.862;6.220;2023-03-14T10:53:33;98027.63;;;8.17;88.05
74905;BME280;63465;50.862;6.220;2023-03-14T10:56:03;98020.03;;;8.25;86.93
74905;BME280;63465;50.862;6.220;2023-03-14T10:58:33;98028.69;;;8.14;87.72
74905;BME280;63465;50.862;6.220;2023-03-14T11:01:09;98041.34;;;8.09;87.58
74905;BME280;63465;50.862;6.220;2023-03-14T11:03:45;98041.63;;;8.32;86.20
74905;BME280;63465;50.862;6.220;2023-03-14T11:06:20;98048.16;;;8.53;85.89
74905;BME280;63465;50.862;6.220;2023-03-14T11:08:53;98056.31;;;8.50;85.06
74905;BME280;63465;50.862;6.220;2023-03-14T11:11:23;98064.69;;;8.70;84.30
74905;BME280;63465;50.862;6.220;2023-03-14T11:13:59;98064.16;;;8.90;84.11
74905;BME280;63465;50.862;6.220;2023-03-14T11:16:35;98078.28;;;8.51;84.59
74905;BME280;63465;50.862;6.220;2023-03-14T11:19:32;98073.78;;;8.66;83.21
74905;BME280;63465;50.862;6.220;2023-03-14T11:22:05;98097.41;;;9.07;82.45
74905;BME280;63465;50.862;6.220;2023-03-14T11:24:49;98090.88;;;10.13;78.09
74905;BME280;63465;50.862;6.220;2023-03-14T11:27:22;98096.75;;;9.42;79.57
74905;BME280;63465;50.862;6.220;2023-03-14T11:29:55;98118.34;;;8.98;80.40
74905;BME280;63465;50.862;6.220;2023-03-14T11:32:30;98126.28;;;8.98;80.60
74905;BME280;63465;50.862;6.220;2023-03-14T11:35:03;98119.84;;;8.49;82.90
74905;BME280;63465;50.862;6.220;2023-03-14T11:37:36;98135.03;;;8.45;83.33
74905;BME280;63465;50.862;6.220;2023-03-14T11:40:13;98163.53;;;8.40;84.26
74905;BME280;63465;50.862;6.220;2023-03-14T11:42:42;98206.28;;;6.72;87.42
74905;BME280;63465;50.862;6.220;2023-03-14T11:45:15;98221.84;;;5.80;89.10
74905;BME280;63465;50.862;6.220;2023-03-14T11:47:44;98222.50;;;5.67;90.65
74905;BME280;63465;50.862;6.220;2023-03-14T11:50:21;98223.19;;;5.71;91.64
74905;BME280;63465;50.862;6.220;2023-03-14T11:52:52;98226.94;;;5.83;92.74
74905;BME280;63465;50.862;6.220;2023-03-14T11:55:24;98228.50;;;5.87;93.31
74905;BME280;63465;50.862;6.220;2023-03-14T11:57:56;98242.50;;;6.05;93.65
74905;BME280;63465;50.862;6.220;2023-03-14T12:00:25;98255.06;;;6.16;93.64
74905;BME280;63465;50.862;6.220;2023-03-14T12:02:56;98250.41;;;6.21;94.13
74905;BME280;63465;50.862;6.220;2023-03-14T12:05:55;98263.16;;;6.29;94.59
74905;BME280;63465;50.862;6.220;2023-03-14T12:08:52;98266.66;;;6.45;93.48
74905;BME280;63465;50.862;6.220;2023-03-14T12:11:30;98272.84;;;6.44;93.26
74905;BME280;63465;50.862;6.220;2023-03-14T12:13:58;98282.97;;;6.52;93.70
74905;BME280;63465;50.862;6.220;2023-03-14T12:16:32;98291.03;;;6.49;91.64
74905;BME280;63465;50.862;6.220;2023-03-14T12:19:14;98297.22;;;6.79;91.83
74905;BME280;63465;50.862;6.220;2023-03-14T12:21:49;98299.53;;;6.86;90.42
74905;BME280;63465;50.862;6.220;2023-03-14T12:24:19;98313.47;;;7.04;88.90
74905;BME280;63465;50.862;6.220;2023-03-14T12:26:52;98316.63;;;6.94;87.91
74905;BME280;63465;50.862;6.220;2023-03-14T12:29:20;98331.00;;;6.89;87.55
74905;BME280;63465;50.862;6.220;2023-03-14T12:31:48;98323.34;;;6.84;85.22
74905;BME280;63465;50.862;6.220;2023-03-14T12:34:29;98339.41;;;6.79;82.88
74905;BME280;63465;50.862;6.220;2023-03-14T12:37:05;98341.81;;;6.68;84.53
74905;BME280;63465;50.862;6.220;2023-03-14T12:39:43;98349.81;;;6.99;84.48
74905;BME280;63465;50.862;6.220;2023-03-14T12:42:18;98363.41;;;7.07;85.53
74905;BME280;63465;50.862;6.220;2023-03-14T12:44:48;98357.78;;;6.97;84.96
74905;BME280;63465;50.862;6.220;2023-03-14T12:47:50;98366.13;;;7.05;84.71
74905;BME280;63465;50.862;6.220;2023-03-14T12:50:25;98373.00;;;6.92;83.53
74905;BME280;63465;50.862;6.220;2023-03-14T12:56:09;98392.25;;;6.94;83.04
74905;BME280;63465;50.862;6.220;2023-03-14T12:58:41;98392.41;;;7.07;82.19
74905;BME280;63465;50.862;6.220;2023-03-14T13:01:16;98404.81;;;6.89;82.20
74905;BME280;63465;50.862;6.220;2023-03-14T13:03:45;98407.91;;;6.97;82.32
74905;BME280;63465;50.862;6.220;2023-03-14T13:06:13;98416.66;;;6.97;82.53
74905;BME280;63465;50.862;6.220;2023-03-14T13:12:11;98434.00;;;7.18;83.25
74905;BME280;63465;50.862;6.220;2023-03-14T13:14:41;98431.72;;;7.11;82.58
74905;BME280;63465;50.862;6.220;2023-03-14T13:17:10;98443.47;;;7.22;83.14
74905;BME280;63465;50.862;6.220;2023-03-14T13:19:38;98441.75;;;7.21;82.48
74905;BME280;63465;50.862;6.220;2023-03-14T13:22:12;98448.47;;;7.10;82.21
74905;BME280;63465;50.862;6.220;2023-03-14T13:24:43;98466.94;;;7.10;83.11
74905;BME280;63465;50.862;6.220;2023-03-14T13:27:16;98491.50;;;6.95;84.86
74905;BME280;63465;50.862;6.220;2023-03-14T13:29:44;98513.63;;;5.87;87.44
74905;BME280;63465;50.862;6.220;2023-03-14T13:32:17;98523.47;;;5.84;88.49
74905;BME280;63465;50.862;6.220;2023-03-14T13:34:45;98529.63;;;5.65;89.52
74905;BME280;63465;50.862;6.220;2023-03-14T13:37:19;98539.16;;;5.49;89.77
74905;BME280;63465;50.862;6.220;2023-03-14T13:39:51;98537.59;;;5.64;90.54
74905;BME280;63465;50.862;6.220;2023-03-14T13:42:18;98548.53;;;5.74;90.68